UKLU/UDJ METAR and TAF weather

Enter ICAO airport designator
Station Type Date Time Source
UKLU METAR 2019/12/07 07:30 UTC NOAA

UKLU 070730Z 00000MPS 2100 BR OVC006 M01/M02 Q1019 R10/090070 NOSIG


Station Type Date Time Source
UKLU Decoded METAR 2019/12/07 07:30 UTC NOAA

Uzhhorod, Ukraine (UKLU) 48-38-05N 022-15-53E
Dec 07, 2019 - 02:30 AM EST / 2019.12.07 0730 UTC
Wind: Calm:0
Visibility: 1 mile(s):0
Sky conditions: overcast
Weather: mist
Temperature: 30 F (-1 C)
Dew Point: 28 F (-2 C)
Relative Humidity: 92%
Pressure (altimeter): 30.09 in. Hg (1019 hPa)
ob: UKLU 070730Z 00000MPS 2100 BR OVC006 M01/M02 Q1019 R10/090070 NOSIG
cycle: 7

Station Type Date Time Source
UKLU TAF 2019/04/25 06:24 UTC NOAA

TAF TAF UKLU 250504Z 2506/2615 12005MPS 9999 NSC
TEMPO 2506/2512 15007G12MPS SCT040

Example: see airport list